sensor_id;sensor_type;location;lat;lon;timestamp;temperature;humidity
70244;DHT22;57634;51.136;17.024;2023-08-20T00:00:00;25.10;69.00
70244;DHT22;57634;51.136;17.024;2023-08-20T00:03:31;25.10;69.40
70244;DHT22;57634;51.136;17.024;2023-08-20T00:06:32;25.10;69.90
70244;DHT22;57634;51.136;17.024;2023-08-20T00:09:34;25.20;70.10
70244;DHT22;57634;51.136;17.024;2023-08-20T00:12:35;25.30;70.00
70244;DHT22;57634;51.136;17.024;2023-08-20T00:15:37;25.30;69.70
70244;DHT22;57634;51.136;17.024;2023-08-20T00:18:39;25.30;69.70
70244;DHT22;57634;51.136;17.024;2023-08-20T00:21:42;25.40;70.00
70244;DHT22;57634;51.136;17.024;2023-08-20T00:24:46;25.40;69.40
70244;DHT22;57634;51.136;17.024;2023-08-20T00:27:48;25.30;69.40
70244;DHT22;57634;51.136;17.024;2023-08-20T00:30:49;25.30;69.00
70244;DHT22;57634;51.136;17.024;2023-08-20T00:33:50;25.10;68.90
70244;DHT22;57634;51.136;17.024;2023-08-20T00:36:52;24.90;69.30
70244;DHT22;57634;51.136;17.024;2023-08-20T00:39:53;24.80;69.50
70244;DHT22;57634;51.136;17.024;2023-08-20T00:43:20;24.70;70.20
70244;DHT22;57634;51.136;17.024;2023-08-20T00:46:21;24.70;71.10
70244;DHT22;57634;51.136;17.024;2023-08-20T00:49:23;24.70;71.00
70244;DHT22;57634;51.136;17.024;2023-08-20T00:52:25;24.80;70.40
70244;DHT22;57634;51.136;17.024;2023-08-20T00:55:26;24.90;70.00
70244;DHT22;57634;51.136;17.024;2023-08-20T00:58:28;24.80;69.80
70244;DHT22;57634;51.136;17.024;2023-08-20T01:01:30;24.80;69.80
70244;DHT22;57634;51.136;17.024;2023-08-20T01:04:31;24.70;69.90
70244;DHT22;57634;51.136;17.024;2023-08-20T01:07:43;24.60;70.00
70244;DHT22;57634;51.136;17.024;2023-08-20T01:11:01;24.50;69.90
70244;DHT22;57634;51.136;17.024;2023-08-20T01:14:27;24.30;70.10
70244;DHT22;57634;51.136;17.024;2023-08-20T01:17:29;24.10;70.90
70244;DHT22;57634;51.136;17.024;2023-08-20T01:20:43;23.90;71.50
70244;DHT22;57634;51.136;17.024;2023-08-20T01:30:43;23.60;73.00
70244;DHT22;57634;51.136;17.024;2023-08-20T01:33:45;23.60;73.70
70244;DHT22;57634;51.136;17.024;2023-08-20T01:36:46;23.50;74.00
70244;DHT22;57634;51.136;17.024;2023-08-20T01:39:48;23.60;74.10
70244;DHT22;57634;51.136;17.024;2023-08-20T01:42:49;23.60;74.30
70244;DHT22;57634;51.136;17.024;2023-08-20T01:45:50;23.50;74.50
70244;DHT22;57634;51.136;17.024;2023-08-20T01:48:52;23.50;74.90
70244;DHT22;57634;51.136;17.024;2023-08-20T01:51:54;23.50;75.10
70244;DHT22;57634;51.136;17.024;2023-08-20T01:54:55;23.40;75.50
70244;DHT22;57634;51.136;17.024;2023-08-20T01:57:57;23.30;75.90
70244;DHT22;57634;51.136;17.024;2023-08-20T02:00:58;23.30;76.10
70244;DHT22;57634;51.136;17.024;2023-08-20T02:03:59;23.30;76.40
70244;DHT22;57634;51.136;17.024;2023-08-20T02:07:00;23.30;76.60
70244;DHT22;57634;51.136;17.024;2023-08-20T02:10:02;23.30;76.70
70244;DHT22;57634;51.136;17.024;2023-08-20T02:13:30;23.40;76.60
70244;DHT22;57634;51.136;17.024;2023-08-20T02:16:32;23.40;76.50
70244;DHT22;57634;51.136;17.024;2023-08-20T02:19:33;23.40;76.20
70244;DHT22;57634;51.136;17.024;2023-08-20T02:22:35;23.50;76.00
70244;DHT22;57634;51.136;17.024;2023-08-20T02:25:37;23.50;75.70
70244;DHT22;57634;51.136;17.024;2023-08-20T02:28:38;23.50;75.50
70244;DHT22;57634;51.136;17.024;2023-08-20T02:31:40;23.60;75.40
70244;DHT22;57634;51.136;17.024;2023-08-20T02:34:41;23.60;75.20
70244;DHT22;57634;51.136;17.024;2023-08-20T02:37:42;23.60;75.10
70244;DHT22;57634;51.136;17.024;2023-08-20T02:40:44;23.60;75.00
70244;DHT22;57634;51.136;17.024;2023-08-20T02:43:45;23.60;74.90
70244;DHT22;57634;51.136;17.024;2023-08-20T02:46:47;23.60;74.80
70244;DHT22;57634;51.136;17.024;2023-08-20T02:49:48;23.50;74.80
70244;DHT22;57634;51.136;17.024;2023-08-20T02:52:50;23.40;74.80
70244;DHT22;57634;51.136;17.024;2023-08-20T02:56:17;23.40;74.90
70244;DHT22;57634;51.136;17.024;2023-08-20T02:59:18;23.40;75.30
70244;DHT22;57634;51.136;17.024;2023-08-20T03:02:20;23.30;75.20
70244;DHT22;57634;51.136;17.024;2023-08-20T03:05:21;23.30;75.30
70244;DHT22;57634;51.136;17.024;2023-08-20T03:08:23;23.30;75.40
70244;DHT22;57634;51.136;17.024;2023-08-20T03:11:24;23.30;75.40
70244;DHT22;57634;51.136;17.024;2023-08-20T03:14:26;23.20;75.40
70244;DHT22;57634;51.136;17.024;2023-08-20T03:17:27;23.20;75.20
70244;DHT22;57634;51.136;17.024;2023-08-20T03:20:29;23.20;75.20
70244;DHT22;57634;51.136;17.024;2023-08-20T03:23:32;23.10;75.20
70244;DHT22;57634;51.136;17.024;2023-08-20T03:26:33;23.00;75.20
70244;DHT22;57634;51.136;17.024;2023-08-20T03:29:35;23.00;75.40
70244;DHT22;57634;51.136;17.024;2023-08-20T03:32:37;22.90;75.60
70244;DHT22;57634;51.136;17.024;2023-08-20T03:35:39;22.90;76.00
70244;DHT22;57634;51.136;17.024;2023-08-20T03:39:05;22.90;76.20
70244;DHT22;57634;51.136;17.024;2023-08-20T03:42:06;22.90;76.50
70244;DHT22;57634;51.136;17.024;2023-08-20T03:45:08;22.90;76.50
70244;DHT22;57634;51.136;17.024;2023-08-20T03:48:09;22.90;76.40
70244;DHT22;57634;51.136;17.024;2023-08-20T03:51:11;22.90;76.40
70244;DHT22;57634;51.136;17.024;2023-08-20T03:54:13;22.90;76.50
70244;DHT22;57634;51.136;17.024;2023-08-20T03:57:15;22.80;76.70
70244;DHT22;57634;51.136;17.024;2023-08-20T04:00:16;22.80;77.10
70244;DHT22;57634;51.136;17.024;2023-08-20T04:03:18;22.80;77.30
70244;DHT22;57634;51.136;17.024;2023-08-20T04:06:20;22.90;77.40
70244;DHT22;57634;51.136;17.024;2023-08-20T04:09:21;22.90;77.20
70244;DHT22;57634;51.136;17.024;2023-08-20T04:12:22;23.00;77.20
70244;DHT22;57634;51.136;17.024;2023-08-20T04:15:24;23.10;77.20
70244;DHT22;57634;51.136;17.024;2023-08-20T04:18:25;23.20;76.90
70244;DHT22;57634;51.136;17.024;2023-08-20T04:21:53;23.40;76.80
70244;DHT22;57634;51.136;17.024;2023-08-20T04:24:55;23.60;76.30
70244;DHT22;57634;51.136;17.024;2023-08-20T04:27:57;23.90;76.00
70244;DHT22;57634;51.136;17.024;2023-08-20T04:30:58;24.20;75.30
70244;DHT22;57634;51.136;17.024;2023-08-20T04:34:01;24.50;74.50
70244;DHT22;57634;51.136;17.024;2023-08-20T04:37:02;24.80;73.60
70244;DHT22;57634;51.136;17.024;2023-08-20T04:40:08;25.10;72.60
70244;DHT22;57634;51.136;17.024;2023-08-20T04:43:09;25.50;71.70
70244;DHT22;57634;51.136;17.024;2023-08-20T04:46:11;25.90;70.70
70244;DHT22;57634;51.136;17.024;2023-08-20T04:49:13;26.30;69.50
70244;DHT22;57634;51.136;17.024;2023-08-20T04:52:14;26.70;68.30
70244;DHT22;57634;51.136;17.024;2023-08-20T04:55:16;27.30;67.10
70244;DHT22;57634;51.136;17.024;2023-08-20T04:58:17;27.80;66.00
70244;DHT22;57634;51.136;17.024;2023-08-20T05:01:44;28.50;64.70
70244;DHT22;57634;51.136;17.024;2023-08-20T05:04:45;29.50;62.30
70244;DHT22;57634;51.136;17.024;2023-08-20T05:07:46;30.30;59.90
70244;DHT22;57634;51.136;17.024;2023-08-20T05:10:49;31.20;57.50
70244;DHT22;57634;51.136;17.024;2023-08-20T05:13:55;32.00;55.30
70244;DHT22;57634;51.136;17.024;2023-08-20T05:16:57;32.80;53.20
70244;DHT22;57634;51.136;17.024;2023-08-20T05:19:58;33.40;51.10
70244;DHT22;57634;51.136;17.024;2023-08-20T05:22:59;34.10;49.40
70244;DHT22;57634;51.136;17.024;2023-08-20T05:26:01;34.70;47.90
70244;DHT22;57634;51.136;17.024;2023-08-20T05:29:03;35.40;46.50
70244;DHT22;57634;51.136;17.024;2023-08-20T05:32:05;36.10;45.30
70244;DHT22;57634;51.136;17.024;2023-08-20T05:35:06;36.80;43.90
70244;DHT22;57634;51.136;17.024;2023-08-20T05:38:08;37.70;42.40
70244;DHT22;57634;51.136;17.024;2023-08-20T05:41:34;38.50;40.90
70244;DHT22;57634;51.136;17.024;2023-08-20T05:44:36;39.50;38.40
70244;DHT22;57634;51.136;17.024;2023-08-20T05:47:37;40.50;36.70
70244;DHT22;57634;51.136;17.024;2023-08-20T05:50:39;41.30;35.00
70244;DHT22;57634;51.136;17.024;2023-08-20T05:53:40;42.20;33.50
70244;DHT22;57634;51.136;17.024;2023-08-20T05:56:41;43.00;32.10
70244;DHT22;57634;51.136;17.024;2023-08-20T05:59:43;43.60;30.50
70244;DHT22;57634;51.136;17.024;2023-08-20T06:02:44;44.30;29.70
70244;DHT22;57634;51.136;17.024;2023-08-20T06:05:45;44.80;28.80
70244;DHT22;57634;51.136;17.024;2023-08-20T06:08:47;45.30;28.30
70244;DHT22;57634;51.136;17.024;2023-08-20T06:11:48;45.90;27.50
70244;DHT22;57634;51.136;17.024;2023-08-20T06:14:50;46.50;26.90
70244;DHT22;57634;51.136;17.024;2023-08-20T06:17:52;47.00;26.30
70244;DHT22;57634;51.136;17.024;2023-08-20T06:20:54;47.60;25.90
70244;DHT22;57634;51.136;17.024;2023-08-20T06:24:21;48.10;25.10
70244;DHT22;57634;51.136;17.024;2023-08-20T06:27:23;48.60;24.10
70244;DHT22;57634;51.136;17.024;2023-08-20T06:30:24;49.00;23.60
70244;DHT22;57634;51.136;17.024;2023-08-20T06:33:25;49.30;23.20
70244;DHT22;57634;51.136;17.024;2023-08-20T06:36:27;49.70;22.70
70244;DHT22;57634;51.136;17.024;2023-08-20T06:39:28;50.00;22.30
70244;DHT22;57634;51.136;17.024;2023-08-20T06:42:29;50.50;22.00
70244;DHT22;57634;51.136;17.024;2023-08-20T06:45:31;50.90;21.60
70244;DHT22;57634;51.136;17.024;2023-08-20T06:48:32;51.10;21.20
70244;DHT22;57634;51.136;17.024;2023-08-20T06:51:34;51.30;21.20
70244;DHT22;57634;51.136;17.024;2023-08-20T06:54:35;51.30;21.10
70244;DHT22;57634;51.136;17.024;2023-08-20T06:57:37;51.10;21.00
70244;DHT22;57634;51.136;17.024;2023-08-20T07:00:38;50.70;21.00
70244;DHT22;57634;51.136;17.024;2023-08-20T07:03:41;50.30;21.20
70244;DHT22;57634;51.136;17.024;2023-08-20T07:07:08;50.20;21.50
70244;DHT22;57634;51.136;17.024;2023-08-20T07:10:10;49.90;21.30
70244;DHT22;57634;51.136;17.024;2023-08-20T07:13:13;49.70;21.30
70244;DHT22;57634;51.136;17.024;2023-08-20T07:16:15;49.50;21.40
70244;DHT22;57634;51.136;17.024;2023-08-20T07:19:16;49.30;21.40
70244;DHT22;57634;51.136;17.024;2023-08-20T07:22:18;49.20;21.50
70244;DHT22;57634;51.136;17.024;2023-08-20T07:25:19;49.20;21.40
70244;DHT22;57634;51.136;17.024;2023-08-20T07:28:21;49.00;21.50
70244;DHT22;57634;51.136;17.024;2023-08-20T07:31:33;48.20;21.70
70244;DHT22;57634;51.136;17.024;2023-08-20T07:34:35;47.00;22.50
70244;DHT22;57634;51.136;17.024;2023-08-20T07:37:36;46.30;23.40
70244;DHT22;57634;51.136;17.024;2023-08-20T07:40:37;46.00;23.80
70244;DHT22;57634;51.136;17.024;2023-08-20T07:44:04;46.20;23.90
70244;DHT22;57634;51.136;17.024;2023-08-20T07:47:05;46.40;23.60
70244;DHT22;57634;51.136;17.024;2023-08-20T07:50:07;46.80;23.50
70244;DHT22;57634;51.136;17.024;2023-08-20T07:53:09;47.20;23.20
70244;DHT22;57634;51.136;17.024;2023-08-20T07:56:11;47.40;22.90
70244;DHT22;57634;51.136;17.024;2023-08-20T07:59:12;47.50;22.80
70244;DHT22;57634;51.136;17.024;2023-08-20T08:02:14;47.40;22.80
70244;DHT22;57634;51.136;17.024;2023-08-20T08:05:15;47.20;22.90
70244;DHT22;57634;51.136;17.024;2023-08-20T08:08:17;47.10;22.90
70244;DHT22;57634;51.136;17.024;2023-08-20T08:11:18;47.30;22.90
70244;DHT22;57634;51.136;17.024;2023-08-20T08:14:20;47.50;22.60
70244;DHT22;57634;51.136;17.024;2023-08-20T08:17:21;47.80;22.40
70244;DHT22;57634;51.136;17.024;2023-08-20T08:20:23;48.20;22.30
70244;DHT22;57634;51.136;17.024;2023-08-20T08:23:24;48.60;22.00
70244;DHT22;57634;51.136;17.024;2023-08-20T08:26:51;49.10;21.60
70244;DHT22;57634;51.136;17.024;2023-08-20T08:29:53;49.70;21.10
70244;DHT22;57634;51.136;17.024;2023-08-20T08:32:55;50.30;20.80
70244;DHT22;57634;51.136;17.024;2023-08-20T08:35:56;50.60;20.10
70244;DHT22;57634;51.136;17.024;2023-08-20T08:38:57;51.00;19.90
70244;DHT22;57634;51.136;17.024;2023-08-20T08:42:02;51.30;19.40
70244;DHT22;57634;51.136;17.024;2023-08-20T08:45:06;51.30;19.30
70244;DHT22;57634;51.136;17.024;2023-08-20T08:48:08;51.50;19.30
70244;DHT22;57634;51.136;17.024;2023-08-20T08:51:11;51.70;19.20
70244;DHT22;57634;51.136;17.024;2023-08-20T08:54:14;51.30;19.20
70244;DHT22;57634;51.136;17.024;2023-08-20T08:57:17;50.10;19.50
70244;DHT22;57634;51.136;17.024;2023-08-20T09:00:18;48.40;20.10
70244;DHT22;57634;51.136;17.024;2023-08-20T09:03:45;46.60;21.10
70244;DHT22;57634;51.136;17.024;2023-08-20T09:06:47;44.80;22.40
70244;DHT22;57634;51.136;17.024;2023-08-20T09:09:49;43.40;23.70
70244;DHT22;57634;51.136;17.024;2023-08-20T09:12:50;42.00;25.00
70244;DHT22;57634;51.136;17.024;2023-08-20T09:15:53;40.70;26.30
70244;DHT22;57634;51.136;17.024;2023-08-20T09:18:54;39.60;27.40
70244;DHT22;57634;51.136;17.024;2023-08-20T09:21:58;38.70;28.10
70244;DHT22;57634;51.136;17.024;2023-08-20T09:25:00;38.00;28.90
70244;DHT22;57634;51.136;17.024;2023-08-20T09:28:04;37.30;29.40
70244;DHT22;57634;51.136;17.024;2023-08-20T09:31:05;36.70;30.00
70244;DHT22;57634;51.136;17.024;2023-08-20T09:34:12;36.20;30.60
70244;DHT22;57634;51.136;17.024;2023-08-20T09:37:43;35.90;31.40
70244;DHT22;57634;51.136;17.024;2023-08-20T09:40:46;35.60;32.40
70244;DHT22;57634;51.136;17.024;2023-08-20T09:43:48;35.30;33.30
70244;DHT22;57634;51.136;17.024;2023-08-20T09:46:53;35.40;33.90
70244;DHT22;57634;51.136;17.024;2023-08-20T09:49:58;35.70;33.60
70244;DHT22;57634;51.136;17.024;2023-08-20T09:53:07;36.20;33.10
70244;DHT22;57634;51.136;17.024;2023-08-20T09:56:27;36.70;32.40
70244;DHT22;57634;51.136;17.024;2023-08-20T09:59:55;37.20;31.70
70244;DHT22;57634;51.136;17.024;2023-08-20T10:02:58;37.60;31.50
70244;DHT22;57634;51.136;17.024;2023-08-20T10:06:02;37.80;31.00
70244;DHT22;57634;51.136;17.024;2023-08-20T10:09:04;38.00;30.80
70244;DHT22;57634;51.136;17.024;2023-08-20T10:12:07;38.00;30.50
70244;DHT22;57634;51.136;17.024;2023-08-20T10:15:09;38.10;30.40
70244;DHT22;57634;51.136;17.024;2023-08-20T10:18:11;38.00;30.30
70244;DHT22;57634;51.136;17.024;2023-08-20T10:21:14;37.90;30.20
70244;DHT22;57634;51.136;17.024;2023-08-20T10:24:17;38.00;30.40
70244;DHT22;57634;51.136;17.024;2023-08-20T10:31:09;38.20;30.00
70244;DHT22;57634;51.136;17.024;2023-08-20T10:34:31;38.50;29.50
70244;DHT22;57634;51.136;17.024;2023-08-20T10:37:27;38.60;29.10
70244;DHT22;57634;51.136;17.024;2023-08-20T10:43:49;38.70;28.90
70244;DHT22;57634;51.136;17.024;2023-08-20T10:47:22;38.70;28.80
70244;DHT22;57634;51.136;17.024;2023-08-20T10:50:29;38.70;29.10
70244;DHT22;57634;51.136;17.024;2023-08-20T10:53:32;38.60;29.20
70244;DHT22;57634;51.136;17.024;2023-08-20T10:56:45;38.40;29.40
70244;DHT22;57634;51.136;17.024;2023-08-20T10:59:57;38.10;29.70
70244;DHT22;57634;51.136;17.024;2023-08-20T11:03:02;38.00;29.90
70244;DHT22;57634;51.136;17.024;2023-08-20T11:06:30;37.90;30.10
70244;DHT22;57634;51.136;17.024;2023-08-20T11:09:33;37.80;30.40
70244;DHT22;57634;51.136;17.024;2023-08-20T11:12:34;37.90;30.50
70244;DHT22;57634;51.136;17.024;2023-08-20T11:15:36;37.90;30.40
70244;DHT22;57634;51.136;17.024;2023-08-20T11:18:40;38.00;30.60
70244;DHT22;57634;51.136;17.024;2023-08-20T11:21:42;37.90;30.60
70244;DHT22;57634;51.136;17.024;2023-08-20T11:24:44;37.80;31.00
70244;DHT22;57634;51.136;17.024;2023-08-20T11:27:45;37.80;31.10
70244;DHT22;57634;51.136;17.024;2023-08-20T11:30:47;37.80;31.40
70244;DHT22;57634;51.136;17.024;2023-08-20T11:33:51;37.80;31.30
70244;DHT22;57634;51.136;17.024;2023-08-20T11:36:52;37.70;31.40
70244;DHT22;57634;51.136;17.024;2023-08-20T11:39:54;37.70;31.80
70244;DHT22;57634;51.136;17.024;2023-08-20T11:43:22;37.70;31.80
70244;DHT22;57634;51.136;17.024;2023-08-20T11:46:24;37.80;31.60
70244;DHT22;57634;51.136;17.024;2023-08-20T11:49:29;37.70;31.70
70244;DHT22;57634;51.136;17.024;2023-08-20T11:52:32;37.60;31.90
70244;DHT22;57634;51.136;17.024;2023-08-20T11:55:34;37.60;31.60
70244;DHT22;57634;51.136;17.024;2023-08-20T11:58:36;37.40;31.80
70244;DHT22;57634;51.136;17.024;2023-08-20T12:01:38;37.40;31.80
70244;DHT22;57634;51.136;17.024;2023-08-20T12:04:39;37.40;31.90
70244;DHT22;57634;51.136;17.024;2023-08-20T12:07:40;37.20;32.10
70244;DHT22;57634;51.136;17.024;2023-08-20T12:10:42;37.10;32.30
70244;DHT22;57634;51.136;17.024;2023-08-20T12:13:44;37.00;32.40
70244;DHT22;57634;51.136;17.024;2023-08-20T12:16:45;36.70;32.80
70244;DHT22;57634;51.136;17.024;2023-08-20T12:20:15;36.50;33.10
70244;DHT22;57634;51.136;17.024;2023-08-20T12:26:24;36.10;33.50
70244;DHT22;57634;51.136;17.024;2023-08-20T12:32:43;35.90;33.60
70244;DHT22;57634;51.136;17.024;2023-08-20T12:35:44;35.80;33.50
70244;DHT22;57634;51.136;17.024;2023-08-20T12:38:46;35.80;33.10
70244;DHT22;57634;51.136;17.024;2023-08-20T12:45:29;35.90;32.90
70244;DHT22;57634;51.136;17.024;2023-08-20T13:00:51;35.70;33.10
70244;DHT22;57634;51.136;17.024;2023-08-20T13:03:53;35.60;33.40
70244;DHT22;57634;51.136;17.024;2023-08-20T13:17:08;35.50;33.10
70244;DHT22;57634;51.136;17.024;2023-08-20T13:23:16;35.50;33.40
70244;DHT22;57634;51.136;17.024;2023-08-20T13:26:17;35.40;33.30
70244;DHT22;57634;51.136;17.024;2023-08-20T13:29:47;35.40;33.70
70244;DHT22;57634;51.136;17.024;2023-08-20T13:38:59;35.20;33.30
70244;DHT22;57634;51.136;17.024;2023-08-20T13:42:00;35.20;32.70
70244;DHT22;57634;51.136;17.024;2023-08-20T13:55:15;35.00;32.80
70244;DHT22;57634;51.136;17.024;2023-08-20T14:14:08;34.70;33.50
70244;DHT22;57634;51.136;17.024;2023-08-20T14:20:26;34.70;33.70
70244;DHT22;57634;51.136;17.024;2023-08-20T14:23:28;34.80;33.50
70244;DHT22;57634;51.136;17.024;2023-08-20T15:20:57;34.20;34.40
70244;DHT22;57634;51.136;17.024;2023-08-20T15:42:55;34.30;34.00
70244;DHT22;57634;51.136;17.024;2023-08-20T15:45:56;34.30;33.90
70244;DHT22;57634;51.136;17.024;2023-08-20T15:48:57;34.40;33.80
70244;DHT22;57634;51.136;17.024;2023-08-20T15:52:00;34.50;33.80
70244;DHT22;57634;51.136;17.024;2023-08-20T15:55:02;34.60;33.90
70244;DHT22;57634;51.136;17.024;2023-08-20T15:58:32;34.80;33.90
70244;DHT22;57634;51.136;17.024;2023-08-20T16:01:33;34.90;34.10
70244;DHT22;57634;51.136;17.024;2023-08-20T16:04:35;34.90;34.10
70244;DHT22;57634;51.136;17.024;2023-08-20T16:07:36;34.90;33.90
70244;DHT22;57634;51.136;17.024;2023-08-20T16:10:38;35.00;33.90
70244;DHT22;57634;51.136;17.024;2023-08-20T16:13:40;34.90;33.80
70244;DHT22;57634;51.136;17.024;2023-08-20T16:16:41;35.00;34.00
70244;DHT22;57634;51.136;17.024;2023-08-20T16:19:43;35.00;33.90
70244;DHT22;57634;51.136;17.024;2023-08-20T16:22:45;34.90;34.30
70244;DHT22;57634;51.136;17.024;2023-08-20T16:25:47;34.90;34.30
70244;DHT22;57634;51.136;17.024;2023-08-20T16:28:49;34.80;34.20
70244;DHT22;57634;51.136;17.024;2023-08-20T16:31:50;34.70;34.20
70244;DHT22;57634;51.136;17.024;2023-08-20T16:34:52;34.50;34.50
70244;DHT22;57634;51.136;17.024;2023-08-20T16:38:21;34.30;34.80
70244;DHT22;57634;51.136;17.024;2023-08-20T16:41:23;34.10;35.10
70244;DHT22;57634;51.136;17.024;2023-08-20T16:44:24;33.80;35.40
70244;DHT22;57634;51.136;17.024;2023-08-20T16:47:25;33.70;35.80
70244;DHT22;57634;51.136;17.024;2023-08-20T16:50:27;33.50;36.10
70244;DHT22;57634;51.136;17.024;2023-08-20T16:53:28;33.40;36.50
70244;DHT22;57634;51.136;17.024;2023-08-20T16:57:02;33.30;36.80
70244;DHT22;57634;51.136;17.024;2023-08-20T17:00:04;33.20;37.20
70244;DHT22;57634;51.136;17.024;2023-08-20T17:03:07;33.10;37.60
70244;DHT22;57634;51.136;17.024;2023-08-20T17:06:08;33.10;37.20
70244;DHT22;57634;51.136;17.024;2023-08-20T17:09:10;33.10;37.30
70244;DHT22;57634;51.136;17.024;2023-08-20T17:12:12;33.00;37.40
70244;DHT22;57634;51.136;17.024;2023-08-20T17:15:13;32.90;37.50
70244;DHT22;57634;51.136;17.024;2023-08-20T17:18:15;32.70;37.70
70244;DHT22;57634;51.136;17.024;2023-08-20T17:21:17;32.50;38.10
70244;DHT22;57634;51.136;17.024;2023-08-20T17:24:18;32.30;38.40
70244;DHT22;57634;51.136;17.024;2023-08-20T17:27:20;32.30;39.00
70244;DHT22;57634;51.136;17.024;2023-08-20T17:30:22;32.40;39.20
70244;DHT22;57634;51.136;17.024;2023-08-20T17:33:23;32.70;39.00
70244;DHT22;57634;51.136;17.024;2023-08-20T17:36:50;32.80;38.70
70244;DHT22;57634;51.136;17.024;2023-08-20T17:39:52;32.80;38.40
70244;DHT22;57634;51.136;17.024;2023-08-20T17:42:53;32.70;38.60
70244;DHT22;57634;51.136;17.024;2023-08-20T17:45:54;32.50;38.70
70244;DHT22;57634;51.136;17.024;2023-08-20T17:48:56;32.40;39.00
70244;DHT22;57634;51.136;17.024;2023-08-20T17:51:57;32.30;39.30
70244;DHT22;57634;51.136;17.024;2023-08-20T17:54:59;32.10;39.60
70244;DHT22;57634;51.136;17.024;2023-08-20T17:58:00;32.00;39.90
70244;DHT22;57634;51.136;17.024;2023-08-20T18:01:02;31.90;40.20
70244;DHT22;57634;51.136;17.024;2023-08-20T18:04:03;31.70;40.60
70244;DHT22;57634;51.136;17.024;2023-08-20T18:07:05;31.60;40.90
70244;DHT22;57634;51.136;17.024;2023-08-20T18:10:07;31.50;41.10
70244;DHT22;57634;51.136;17.024;2023-08-20T18:13:08;31.40;41.40
70244;DHT22;57634;51.136;17.024;2023-08-20T18:16:10;31.40;42.20
70244;DHT22;57634;51.136;17.024;2023-08-20T18:19:40;31.30;42.30
70244;DHT22;57634;51.136;17.024;2023-08-20T18:22:42;31.20;43.10
70244;DHT22;57634;51.136;17.024;2023-08-20T18:25:44;31.10;43.80
70244;DHT22;57634;51.136;17.024;2023-08-20T18:28:45;31.00;45.20
70244;DHT22;57634;51.136;17.024;2023-08-20T18:31:47;30.90;46.20
70244;DHT22;57634;51.136;17.024;2023-08-20T18:34:52;30.80;46.70
70244;DHT22;57634;51.136;17.024;2023-08-20T18:37:53;30.70;47.30
70244;DHT22;57634;51.136;17.024;2023-08-20T18:40:55;30.60;47.90
70244;DHT22;57634;51.136;17.024;2023-08-20T18:43:56;30.50;48.50
70244;DHT22;57634;51.136;17.024;2023-08-20T18:46:57;30.40;49.00
70244;DHT22;57634;51.136;17.024;2023-08-20T18:49:59;30.30;49.40
70244;DHT22;57634;51.136;17.024;2023-08-20T18:53:01;30.20;49.50
70244;DHT22;57634;51.136;17.024;2023-08-20T18:56:02;30.20;49.90
70244;DHT22;57634;51.136;17.024;2023-08-20T18:59:30;30.10;50.20
70244;DHT22;57634;51.136;17.024;2023-08-20T19:02:32;30.00;50.80
70244;DHT22;57634;51.136;17.024;2023-08-20T19:05:35;29.90;51.20
70244;DHT22;57634;51.136;17.024;2023-08-20T19:08:37;29.80;51.50
70244;DHT22;57634;51.136;17.024;2023-08-20T19:11:38;29.70;52.00
70244;DHT22;57634;51.136;17.024;2023-08-20T19:14:40;29.60;52.30
70244;DHT22;57634;51.136;17.024;2023-08-20T19:17:41;29.60;52.30
70244;DHT22;57634;51.136;17.024;2023-08-20T19:20:56;29.50;52.40
70244;DHT22;57634;51.136;17.024;2023-08-20T19:23:54;29.40;52.80
70244;DHT22;57634;51.136;17.024;2023-08-20T19:26:55;29.40;53.10
70244;DHT22;57634;51.136;17.024;2023-08-20T19:29:57;29.30;53.60
70244;DHT22;57634;51.136;17.024;2023-08-20T19:33:26;29.20;53.90
70244;DHT22;57634;51.136;17.024;2023-08-20T19:36:34;29.20;54.70
70244;DHT22;57634;51.136;17.024;2023-08-20T19:39:37;29.10;54.60
70244;DHT22;57634;51.136;17.024;2023-08-20T19:42:39;29.10;54.60
70244;DHT22;57634;51.136;17.024;2023-08-20T19:45:45;29.10;55.00
70244;DHT22;57634;51.136;17.024;2023-08-20T19:48:47;29.00;55.40
70244;DHT22;57634;51.136;17.024;2023-08-20T19:51:49;29.00;55.60
70244;DHT22;57634;51.136;17.024;2023-08-20T19:54:50;29.00;55.80
70244;DHT22;57634;51.136;17.024;2023-08-20T19:57:52;28.90;55.80
70244;DHT22;57634;51.136;17.024;2023-08-20T20:00:54;28.90;55.90
70244;DHT22;57634;51.136;17.024;2023-08-20T20:03:56;28.90;56.00
70244;DHT22;57634;51.136;17.024;2023-08-20T20:07:27;28.80;56.00
70244;DHT22;57634;51.136;17.024;2023-08-20T20:10:29;28.80;56.50
70244;DHT22;57634;51.136;17.024;2023-08-20T20:13:31;28.70;56.70
70244;DHT22;57634;51.136;17.024;2023-08-20T20:16:32;28.70;56.90
70244;DHT22;57634;51.136;17.024;2023-08-20T20:19:34;28.70;57.20
70244;DHT22;57634;51.136;17.024;2023-08-20T20:22:40;28.60;57.20
70244;DHT22;57634;51.136;17.024;2023-08-20T20:25:41;28.60;57.20
70244;DHT22;57634;51.136;17.024;2023-08-20T20:28:44;28.50;57.30
70244;DHT22;57634;51.136;17.024;2023-08-20T20:31:46;28.50;57.60
70244;DHT22;57634;51.136;17.024;2023-08-20T20:34:47;28.40;57.50
70244;DHT22;57634;51.136;17.024;2023-08-20T20:37:49;28.30;57.50
70244;DHT22;57634;51.136;17.024;2023-08-20T20:40:51;28.20;57.70
70244;DHT22;57634;51.136;17.024;2023-08-20T20:44:18;28.20;58.10
70244;DHT22;57634;51.136;17.024;2023-08-20T20:47:19;28.10;58.70
70244;DHT22;57634;51.136;17.024;2023-08-20T20:50:21;28.10;59.10
70244;DHT22;57634;51.136;17.024;2023-08-20T20:53:22;28.10;59.20
70244;DHT22;57634;51.136;17.024;2023-08-20T20:56:24;28.00;59.40
70244;DHT22;57634;51.136;17.024;2023-08-20T20:59:27;28.00;59.50
70244;DHT22;57634;51.136;17.024;2023-08-20T21:02:29;28.00;59.70
70244;DHT22;57634;51.136;17.024;2023-08-20T21:05:31;28.00;59.90
70244;DHT22;57634;51.136;17.024;2023-08-20T21:08:33;28.00;60.00
70244;DHT22;57634;51.136;17.024;2023-08-20T21:11:35;27.90;60.00
70244;DHT22;57634;51.136;17.024;2023-08-20T21:14:36;27.90;60.00
70244;DHT22;57634;51.136;17.024;2023-08-20T21:17:41;27.90;60.20
70244;DHT22;57634;51.136;17.024;2023-08-20T21:21:11;27.80;60.30
70244;DHT22;57634;51.136;17.024;2023-08-20T21:24:15;27.80;60.90
70244;DHT22;57634;51.136;17.024;2023-08-20T21:27:17;27.80;61.00
70244;DHT22;57634;51.136;17.024;2023-08-20T21:30:18;27.70;61.00
70244;DHT22;57634;51.136;17.024;2023-08-20T21:33:20;27.70;61.10
70244;DHT22;57634;51.136;17.024;2023-08-20T21:36:22;27.70;61.40
70244;DHT22;57634;51.136;17.024;2023-08-20T21:39:24;27.70;61.40
70244;DHT22;57634;51.136;17.024;2023-08-20T21:42:26;27.70;61.40